createdAt,value
2022-12-22T00:00:20.426Z,21.7
2022-12-22T00:01:24.671Z,21.71
2022-12-22T00:02:29.169Z,21.7
2022-12-22T00:03:34.158Z,21.67
2022-12-22T00:04:39.950Z,21.67
2022-12-22T00:05:44.240Z,21.72
2022-12-22T00:06:48.460Z,21.72
2022-12-22T00:07:52.707Z,21.7
2022-12-22T00:09:00.347Z,21.68
2022-12-22T00:10:09.386Z,21.66
2022-12-22T00:11:13.647Z,21.61
2022-12-22T00:12:17.889Z,21.57
2022-12-22T00:13:22.143Z,21.58
2022-12-22T00:14:26.384Z,21.53
2022-12-22T00:15:30.664Z,21.52
2022-12-22T00:16:34.998Z,21.5
2022-12-22T00:17:39.487Z,21.51
2022-12-22T00:18:43.723Z,21.54
2022-12-22T00:19:47.989Z,21.5
2022-12-22T00:20:52.301Z,21.52
2022-12-22T00:21:56.583Z,21.51
2022-12-22T00:23:00.824Z,21.48
2022-12-22T00:24:05.077Z,21.51
2022-12-22T00:25:09.356Z,21.53
2022-12-22T00:26:13.684Z,21.56
2022-12-22T00:27:17.923Z,21.55
2022-12-22T00:28:22.198Z,21.56
2022-12-22T00:29:26.455Z,21.54
2022-12-22T00:30:30.720Z,21.55
2022-12-22T00:31:35.201Z,21.57
2022-12-22T00:32:39.469Z,21.52
2022-12-22T00:33:43.772Z,21.46
2022-12-22T00:34:48.068Z,21.44
2022-12-22T00:35:52.311Z,21.49
2022-12-22T00:36:56.559Z,21.5
2022-12-22T00:38:00.806Z,21.46
2022-12-22T00:39:05.091Z,21.49
2022-12-22T00:40:09.325Z,21.48
2022-12-22T00:41:13.607Z,21.49
2022-12-22T00:42:17.851Z,21.41
2022-12-22T00:43:22.146Z,21.48
2022-12-22T00:44:26.412Z,21.49
2022-12-22T00:45:30.672Z,21.49
2022-12-22T00:46:35.126Z,21.49
2022-12-22T00:47:39.379Z,21.48
2022-12-22T00:48:43.667Z,21.49
2022-12-22T00:49:47.903Z,21.48
2022-12-22T00:50:52.210Z,21.42
2022-12-22T00:51:56.463Z,21.45
2022-12-22T00:53:00.740Z,21.37
2022-12-22T00:54:05.023Z,21.38
2022-12-22T00:55:09.646Z,21.41
2022-12-22T00:56:13.896Z,21.34
2022-12-22T00:57:18.315Z,21.31
2022-12-22T00:58:22.586Z,21.36
2022-12-22T00:59:26.840Z,21.35
2022-12-22T01:00:31.082Z,21.35
2022-12-22T01:01:35.477Z,21.31
2022-12-22T01:02:40.269Z,21.28
2022-12-22T01:03:45.176Z,21.28
2022-12-22T01:04:49.744Z,21.27
2022-12-22T01:05:55.036Z,21.25
2022-12-22T01:06:59.291Z,21.23
2022-12-22T01:08:03.540Z,21.22
2022-12-22T01:09:07.815Z,21.27
2022-12-22T01:10:12.124Z,21.24
2022-12-22T01:11:16.417Z,21.23
2022-12-22T01:12:20.682Z,21.27
2022-12-22T01:13:24.947Z,21.24
2022-12-22T01:14:29.212Z,21.25
2022-12-22T01:15:33.549Z,21.25
2022-12-22T01:16:38.270Z,21.24
2022-12-22T01:17:42.592Z,21.22
2022-12-22T01:18:46.929Z,21.21
2022-12-22T01:19:51.194Z,21.21
2022-12-22T01:20:55.520Z,21.22
2022-12-22T01:21:59.788Z,21.22
2022-12-22T01:23:04.072Z,21.19
2022-12-22T01:24:08.322Z,21.19
2022-12-22T01:25:12.594Z,21.18
2022-12-22T01:26:16.848Z,21.21
2022-12-22T01:27:21.111Z,21.24
2022-12-22T01:28:25.631Z,21.21
2022-12-22T01:29:29.900Z,21.19
2022-12-22T01:30:34.185Z,21.17
2022-12-22T01:31:38.714Z,21.2
2022-12-22T01:32:43.039Z,21.18
2022-12-22T01:33:47.439Z,21.17
2022-12-22T01:34:51.715Z,21.19
2022-12-22T01:35:55.962Z,21.16
2022-12-22T01:37:00.218Z,21.14
2022-12-22T01:38:04.440Z,21.15
2022-12-22T01:39:08.716Z,21.17
2022-12-22T01:40:15.538Z,21.15
2022-12-22T01:41:20.053Z,21.14
2022-12-22T01:42:24.318Z,21.13
2022-12-22T01:43:28.710Z,21.12
2022-12-22T01:44:33.008Z,21.11
2022-12-22T01:45:37.302Z,21.1
2022-12-22T01:46:44.806Z,21.11
2022-12-22T01:47:49.547Z,21.13
2022-12-22T01:48:53.808Z,21.12
2022-12-22T01:49:58.098Z,21.13
2022-12-22T01:51:02.483Z,21.12
2022-12-22T01:52:06.727Z,21.14
2022-12-22T01:53:14.836Z,21.11
2022-12-22T01:54:23.687Z,21.12
2022-12-22T01:55:27.937Z,21.11
2022-12-22T01:56:32.208Z,21.08
2022-12-22T01:57:36.583Z,21.08
2022-12-22T01:58:40.849Z,21.1
2022-12-22T01:59:45.156Z,21.08
2022-12-22T02:00:49.657Z,21.07
2022-12-22T02:01:54.034Z,21.08
2022-12-22T02:02:58.825Z,21.07
2022-12-22T02:04:03.580Z,21.06
2022-12-22T02:05:07.875Z,21.04
2022-12-22T02:06:12.152Z,21.04
2022-12-22T02:07:16.416Z,21.04
2022-12-22T02:08:20.663Z,21.04
2022-12-22T02:09:24.900Z,21.06
2022-12-22T02:10:31.437Z,21.06
2022-12-22T02:11:35.698Z,21.05
2022-12-22T02:12:39.965Z,21.03
2022-12-22T02:13:44.266Z,21.04
2022-12-22T02:14:48.536Z,21.03
2022-12-22T02:15:52.897Z,21.05
2022-12-22T02:16:57.320Z,21.04
2022-12-22T02:18:01.583Z,21.03
2022-12-22T02:19:05.885Z,21.03
2022-12-22T02:20:10.150Z,21.01
2022-12-22T02:21:14.429Z,21.01
2022-12-22T02:22:18.688Z,21
2022-12-22T02:23:22.964Z,21.01
2022-12-22T02:24:27.203Z,21.03
2022-12-22T02:25:31.446Z,21.04
2022-12-22T02:26:35.714Z,21.03
2022-12-22T02:27:39.998Z,21.05
2022-12-22T02:28:44.426Z,21.06
2022-12-22T02:29:49.400Z,21.06
2022-12-22T02:30:53.648Z,21.06
2022-12-22T02:31:58.119Z,21.05
2022-12-22T02:33:09.090Z,21.05
2022-12-22T02:34:13.891Z,21.03
2022-12-22T02:35:18.157Z,21.02
2022-12-22T02:36:22.429Z,21
2022-12-22T02:37:26.673Z,21
2022-12-22T02:38:31.342Z,20.99
2022-12-22T02:39:35.630Z,20.99
2022-12-22T02:40:41.655Z,20.99
2022-12-22T02:41:46.209Z,20.99
2022-12-22T02:42:50.512Z,20.98
2022-12-22T02:43:54.761Z,20.99
2022-12-22T02:44:59.011Z,20.99
2022-12-22T02:46:03.290Z,21
2022-12-22T02:47:07.812Z,21
2022-12-22T02:48:12.081Z,20.99
2022-12-22T02:49:16.331Z,20.99
2022-12-22T02:50:20.604Z,20.98
2022-12-22T02:51:24.852Z,20.98
2022-12-22T02:52:29.157Z,21
2022-12-22T02:53:33.414Z,20.98
2022-12-22T02:54:37.679Z,20.98
2022-12-22T02:55:41.934Z,20.96
2022-12-22T02:56:46.358Z,21
2022-12-22T02:57:50.777Z,20.99
2022-12-22T02:58:55.066Z,20.98
2022-12-22T02:59:59.335Z,20.98
2022-12-22T03:01:03.650Z,20.97
2022-12-22T03:02:08.382Z,20.96
2022-12-22T03:03:13.523Z,20.96
2022-12-22T03:04:18.570Z,20.96
2022-12-22T03:05:22.832Z,20.97
2022-12-22T03:06:27.055Z,20.97
2022-12-22T03:07:31.341Z,20.97
2022-12-22T03:08:35.594Z,20.96
2022-12-22T03:09:39.906Z,20.97
2022-12-22T03:10:44.211Z,20.95
2022-12-22T03:11:48.477Z,20.95
2022-12-22T03:12:52.741Z,21.02
2022-12-22T03:13:57.019Z,21.03
2022-12-22T03:15:01.300Z,21.04
2022-12-22T03:16:05.665Z,21.02
2022-12-22T03:17:10.207Z,21
2022-12-22T03:18:14.504Z,20.99
2022-12-22T03:19:18.755Z,21.02
2022-12-22T03:20:23.050Z,20.99
2022-12-22T03:21:27.311Z,20.97
2022-12-22T03:22:31.565Z,20.95
2022-12-22T03:23:35.843Z,20.99
2022-12-22T03:24:40.151Z,20.98
2022-12-22T03:25:44.407Z,21
2022-12-22T03:26:48.669Z,20.98
2022-12-22T03:27:52.921Z,20.95
2022-12-22T03:28:57.188Z,20.94
2022-12-22T03:30:02.552Z,20.92
2022-12-22T03:31:06.851Z,20.92
2022-12-22T03:32:11.228Z,20.92
2022-12-22T03:33:15.518Z,20.91
2022-12-22T03:34:19.771Z,20.89
2022-12-22T03:35:24.099Z,20.89
2022-12-22T03:36:28.355Z,20.88
2022-12-22T03:37:32.621Z,20.87
2022-12-22T03:38:36.890Z,20.86
2022-12-22T03:39:41.191Z,20.87
2022-12-22T03:40:45.435Z,20.87
2022-12-22T03:41:49.699Z,20.85
2022-12-22T03:42:53.951Z,20.85
2022-12-22T03:43:58.213Z,20.86
2022-12-22T03:45:03.490Z,20.86
2022-12-22T03:46:07.825Z,20.85
2022-12-22T03:47:12.156Z,20.85
2022-12-22T03:48:16.731Z,20.84
2022-12-22T03:49:20.972Z,20.84
2022-12-22T03:50:25.280Z,20.85
2022-12-22T03:51:29.596Z,20.84
2022-12-22T03:52:33.860Z,20.85
2022-12-22T03:53:38.121Z,20.85
2022-12-22T03:54:42.380Z,20.85
2022-12-22T03:55:46.630Z,20.84
2022-12-22T03:56:50.920Z,20.84
2022-12-22T03:57:55.245Z,20.84
2022-12-22T03:58:59.496Z,20.84
2022-12-22T04:00:03.812Z,20.84
2022-12-22T04:01:11.181Z,20.83
2022-12-22T04:02:16.275Z,20.82
2022-12-22T04:03:20.926Z,20.84
2022-12-22T04:04:25.362Z,20.83
2022-12-22T04:05:29.607Z,20.82
2022-12-22T04:06:33.867Z,20.83
2022-12-22T04:07:38.150Z,20.82
2022-12-22T04:08:42.397Z,20.82
2022-12-22T04:09:46.669Z,20.82
2022-12-22T04:10:50.921Z,20.81
2022-12-22T04:11:55.187Z,20.81
2022-12-22T04:12:59.428Z,20.81
2022-12-22T04:14:03.679Z,20.8
2022-12-22T04:15:07.945Z,20.8
2022-12-22T04:16:15.227Z,20.82
2022-12-22T04:17:19.590Z,20.82
2022-12-22T04:18:23.846Z,20.83
2022-12-22T04:19:28.132Z,20.83
2022-12-22T04:20:32.411Z,20.81
2022-12-22T04:21:36.696Z,20.81
2022-12-22T04:22:40.963Z,20.81
2022-12-22T04:23:45.223Z,20.81
2022-12-22T04:24:49.467Z,20.82
2022-12-22T04:25:53.727Z,20.81
2022-12-22T04:26:57.984Z,20.81
2022-12-22T04:28:02.272Z,20.8
2022-12-22T04:29:06.609Z,20.79
2022-12-22T04:30:10.901Z,20.8
2022-12-22T04:31:15.170Z,20.79
2022-12-22T04:32:19.710Z,20.81
2022-12-22T04:33:24.117Z,20.79
2022-12-22T04:34:28.364Z,20.78
2022-12-22T04:35:32.651Z,20.78
2022-12-22T04:36:37.175Z,20.78
2022-12-22T04:37:41.432Z,20.78
2022-12-22T04:38:45.736Z,20.78
2022-12-22T04:39:50.001Z,20.78
2022-12-22T04:40:54.248Z,20.78
2022-12-22T04:41:58.603Z,20.78
2022-12-22T04:43:02.839Z,20.78
2022-12-22T04:44:07.115Z,20.82
2022-12-22T04:45:11.415Z,20.82
2022-12-22T04:46:15.737Z,20.8
2022-12-22T04:47:20.255Z,20.78
2022-12-22T04:48:24.513Z,20.78
2022-12-22T04:49:28.786Z,20.77
2022-12-22T04:50:33.091Z,20.77
2022-12-22T04:51:37.320Z,20.77
2022-12-22T04:52:41.566Z,20.82
2022-12-22T04:53:45.844Z,20.79
2022-12-22T04:54:50.175Z,20.77
2022-12-22T04:55:54.443Z,20.76
2022-12-22T04:56:58.675Z,20.76
2022-12-22T04:58:02.948Z,20.76
2022-12-22T04:59:07.226Z,20.75
2022-12-22T05:00:11.483Z,20.74
2022-12-22T05:01:15.861Z,20.75
2022-12-22T05:02:20.482Z,20.74
2022-12-22T05:03:25.323Z,20.74
2022-12-22T05:04:29.777Z,20.75
2022-12-22T05:05:34.048Z,20.78
2022-12-22T05:06:38.299Z,20.83
2022-12-22T05:07:42.589Z,20.88
2022-12-22T05:08:46.828Z,20.97
2022-12-22T05:09:51.094Z,21.05
2022-12-22T05:10:55.348Z,21.11
2022-12-22T05:11:59.568Z,21.22
2022-12-22T05:13:03.811Z,21.34
2022-12-22T05:14:08.061Z,21.44
2022-12-22T05:15:12.404Z,21.51
2022-12-22T05:16:16.688Z,21.6
2022-12-22T05:17:21.254Z,21.69
2022-12-22T05:18:25.521Z,21.75
2022-12-22T05:19:30.958Z,21.81
2022-12-22T05:20:35.371Z,21.86
2022-12-22T05:21:39.645Z,21.89
2022-12-22T05:22:44.172Z,21.92
2022-12-22T05:23:49.371Z,21.95
2022-12-22T05:24:53.681Z,21.97
2022-12-22T05:25:57.951Z,21.99
2022-12-22T05:27:02.197Z,22
2022-12-22T05:28:06.506Z,21.99
2022-12-22T05:29:10.754Z,22
2022-12-22T05:30:15.064Z,21.99
2022-12-22T05:31:19.394Z,21.99
2022-12-22T05:32:23.954Z,21.97
2022-12-22T05:33:28.202Z,21.97
2022-12-22T05:34:32.446Z,21.94
2022-12-22T05:35:36.739Z,21.93
2022-12-22T05:36:40.998Z,21.94
2022-12-22T05:37:45.238Z,21.91
2022-12-22T05:38:49.477Z,21.89
2022-12-22T05:39:53.759Z,21.87
2022-12-22T05:41:03.436Z,21.83
2022-12-22T05:42:08.382Z,21.81
2022-12-22T05:43:12.648Z,21.8
2022-12-22T05:44:16.915Z,21.78
2022-12-22T05:45:21.194Z,21.75
2022-12-22T05:46:25.518Z,21.73
2022-12-22T05:47:29.974Z,21.72
2022-12-22T05:48:38.404Z,21.71
2022-12-22T05:49:43.644Z,21.68
2022-12-22T05:50:47.900Z,21.68
2022-12-22T05:51:52.142Z,21.66
2022-12-22T05:52:56.455Z,21.66
2022-12-22T05:54:00.752Z,21.64
2022-12-22T05:55:05.062Z,21.64
2022-12-22T05:56:09.325Z,21.63
2022-12-22T05:57:13.635Z,21.6
2022-12-22T05:58:17.894Z,21.57
2022-12-22T05:59:22.171Z,21.58
2022-12-22T06:00:26.440Z,21.57
2022-12-22T06:01:30.732Z,21.52
2022-12-22T06:02:35.324Z,21.52
2022-12-22T06:03:40.283Z,21.53
2022-12-22T06:04:44.970Z,21.49
2022-12-22T06:05:49.222Z,21.47
2022-12-22T06:06:53.518Z,21.46
2022-12-22T06:07:57.765Z,21.45
2022-12-22T06:09:02.003Z,21.42
2022-12-22T06:10:11.524Z,21.43
2022-12-22T06:11:16.596Z,21.41
2022-12-22T06:12:20.875Z,21.42
2022-12-22T06:13:25.124Z,21.43
2022-12-22T06:14:29.348Z,21.42
2022-12-22T06:15:33.622Z,21.42
2022-12-22T06:16:38.145Z,21.4
2022-12-22T06:17:44.963Z,21.36
2022-12-22T06:18:49.430Z,21.34
2022-12-22T06:19:53.745Z,21.34
2022-12-22T06:20:58.021Z,21.32
2022-12-22T06:22:02.299Z,21.33
2022-12-22T06:23:06.584Z,21.35
2022-12-22T06:24:10.818Z,21.37
2022-12-22T06:25:18.335Z,21.38
2022-12-22T06:26:22.931Z,21.39
2022-12-22T06:27:27.206Z,21.39
2022-12-22T06:28:31.452Z,21.35
2022-12-22T06:29:35.716Z,21.3
2022-12-22T06:30:40.033Z,21.29
2022-12-22T06:31:44.358Z,21.27
2022-12-22T06:32:48.889Z,21.27
2022-12-22T06:33:53.126Z,21.27
2022-12-22T06:34:57.380Z,21.24
2022-12-22T06:36:01.659Z,21.24
2022-12-22T06:37:05.903Z,21.24
2022-12-22T06:38:12.851Z,21.21
2022-12-22T06:39:17.125Z,21.21
2022-12-22T06:40:21.421Z,21.2
2022-12-22T06:41:25.783Z,21.18
2022-12-22T06:42:30.053Z,21.17
2022-12-22T06:43:34.329Z,21.17
2022-12-22T06:44:38.558Z,21.14
2022-12-22T06:45:43.129Z,21.15
2022-12-22T06:46:47.469Z,21.15
2022-12-22T06:47:51.993Z,21.14
2022-12-22T06:48:56.260Z,21.17
2022-12-22T06:50:00.490Z,21.14
2022-12-22T06:51:04.758Z,21.15
2022-12-22T06:52:09.012Z,21.14
2022-12-22T06:53:13.320Z,21.14
2022-12-22T06:54:22.298Z,21.17
2022-12-22T06:55:29.909Z,21.19
2022-12-22T06:56:34.197Z,21.18
2022-12-22T06:57:38.571Z,21.18
2022-12-22T06:58:42.851Z,21.17
2022-12-22T06:59:49.789Z,21.16
2022-12-22T07:01:01.169Z,21.12
2022-12-22T07:02:05.487Z,21.12
2022-12-22T07:03:10.462Z,21.11
2022-12-22T07:04:15.528Z,21.11
2022-12-22T07:05:19.837Z,21.12
2022-12-22T07:06:24.112Z,21.14
2022-12-22T07:07:28.366Z,21.15
2022-12-22T07:08:32.665Z,21.12
2022-12-22T07:09:36.923Z,21.11
2022-12-22T07:10:41.203Z,21.11
2022-12-22T07:11:45.517Z,21.09
2022-12-22T07:12:49.756Z,21.09
2022-12-22T07:13:54.044Z,21.14
2022-12-22T07:14:58.292Z,21.13
2022-12-22T07:16:02.673Z,21.16
2022-12-22T07:17:07.192Z,21.17
2022-12-22T07:18:11.568Z,21.14
2022-12-22T07:19:15.978Z,21.12
2022-12-22T07:20:20.507Z,21.14
2022-12-22T07:21:24.799Z,21.14
2022-12-22T07:22:30.568Z,21.15
2022-12-22T07:23:35.082Z,21.11
2022-12-22T07:24:39.367Z,21.13
2022-12-22T07:25:43.626Z,21.14
2022-12-22T07:26:47.903Z,21.14
2022-12-22T07:27:52.152Z,21.12
2022-12-22T07:28:56.390Z,21.11
2022-12-22T07:30:00.794Z,21.12
2022-12-22T07:31:05.289Z,21.12
2022-12-22T07:32:09.722Z,21.12
2022-12-22T07:33:14.012Z,21.12
2022-12-22T07:34:18.283Z,21.12
2022-12-22T07:35:22.593Z,21.09
2022-12-22T07:36:26.891Z,21.12
2022-12-22T07:37:31.132Z,21.13
2022-12-22T07:38:35.409Z,21.13
2022-12-22T07:39:39.683Z,21.13
2022-12-22T07:40:46.809Z,21.15
2022-12-22T07:41:59.378Z,21.17
2022-12-22T07:43:03.616Z,21.16
2022-12-22T07:44:07.875Z,21.15
2022-12-22T07:45:12.182Z,21.18
2022-12-22T07:46:16.540Z,21.15
2022-12-22T07:47:21.006Z,21.15
2022-12-22T07:48:25.285Z,21.15
2022-12-22T07:49:29.568Z,21.18
2022-12-22T07:50:33.846Z,21.16
2022-12-22T07:51:38.173Z,21.17
2022-12-22T07:52:42.451Z,21.17
2022-12-22T07:53:46.720Z,21.17
2022-12-22T07:54:50.955Z,21.16
2022-12-22T07:55:55.242Z,21.16
2022-12-22T07:56:59.484Z,21.15
2022-12-22T07:58:03.733Z,21.15
2022-12-22T07:59:07.982Z,21.16
2022-12-22T08:00:13.271Z,21.16
2022-12-22T08:01:17.543Z,21.15
2022-12-22T08:02:21.969Z,21.16
2022-12-22T08:03:26.909Z,21.15
2022-12-22T08:04:31.649Z,21.17
2022-12-22T08:05:36.070Z,21.17
2022-12-22T08:06:40.381Z,21.15
2022-12-22T08:07:44.667Z,21.19
2022-12-22T08:08:48.944Z,21.17
2022-12-22T08:09:53.195Z,21.15
2022-12-22T08:10:57.429Z,21.14
2022-12-22T08:12:01.730Z,21.14
2022-12-22T08:13:06.020Z,21.16
2022-12-22T08:14:10.549Z,21.13
2022-12-22T08:15:14.862Z,21.14
2022-12-22T08:16:19.177Z,21.11
2022-12-22T08:17:23.640Z,21.1
2022-12-22T08:18:27.868Z,21.1
2022-12-22T08:19:32.200Z,21.12
2022-12-22T08:20:36.445Z,21.12
2022-12-22T08:21:41.553Z,21.11
2022-12-22T08:22:55.923Z,21.12
2022-12-22T08:24:00.226Z,21.09
2022-12-22T08:25:04.499Z,21.08
2022-12-22T08:26:08.839Z,21.08
2022-12-22T08:27:13.117Z,21.08
2022-12-22T08:28:24.563Z,21.07
2022-12-22T08:29:28.868Z,21.08
2022-12-22T08:30:33.136Z,21.08
2022-12-22T08:31:37.442Z,21.1
2022-12-22T08:32:42.014Z,21.08
2022-12-22T08:33:46.245Z,21.11
2022-12-22T08:34:50.487Z,21.11
2022-12-22T08:35:55.035Z,21.13
2022-12-22T08:37:04.961Z,21.12
2022-12-22T08:38:09.196Z,21.14
2022-12-22T08:39:13.421Z,21.13
2022-12-22T08:40:17.639Z,21.13
2022-12-22T08:41:21.862Z,21.12
2022-12-22T08:42:26.083Z,21.12
2022-12-22T08:43:30.334Z,21.1
2022-12-22T08:44:34.597Z,21.15
2022-12-22T08:45:38.900Z,21.22
2022-12-22T08:46:43.184Z,21.27
2022-12-22T08:47:47.601Z,21.25
2022-12-22T08:48:51.859Z,21.2
2022-12-22T08:49:56.094Z,21.2
2022-12-22T08:51:00.356Z,21.17
2022-12-22T08:52:04.574Z,21.15
2022-12-22T08:53:18.698Z,21.16
2022-12-22T08:55:08.447Z,21.12
2022-12-22T08:56:12.714Z,21.09
2022-12-22T08:57:16.973Z,21.07
2022-12-22T08:58:21.207Z,21.07
2022-12-22T08:59:25.412Z,21.08
2022-12-22T09:00:32.090Z,21.08
2022-12-22T09:01:36.629Z,21.06
2022-12-22T09:02:41.502Z,21.04
2022-12-22T09:03:46.295Z,21.03
2022-12-22T09:04:50.524Z,21.07
2022-12-22T09:05:54.764Z,21.06
2022-12-22T09:06:58.967Z,21.07
2022-12-22T09:08:03.185Z,21.09
2022-12-22T09:09:07.417Z,21.1
2022-12-22T09:10:11.665Z,21.1
2022-12-22T09:11:15.888Z,21.13
2022-12-22T09:12:20.113Z,21.14
2022-12-22T09:13:24.356Z,21.14
2022-12-22T09:14:30.857Z,21.15
2022-12-22T09:15:35.169Z,21.14
2022-12-22T09:16:39.568Z,21.13
2022-12-22T09:17:44.236Z,21.12
2022-12-22T09:18:48.464Z,21.12
2022-12-22T09:19:52.688Z,21.23
2022-12-22T09:20:57.007Z,21.27
2022-12-22T09:22:01.254Z,21.3
2022-12-22T09:23:05.473Z,21.25
2022-12-22T09:24:09.714Z,21.24
2022-12-22T09:25:13.943Z,21.22
2022-12-22T09:26:18.208Z,21.19
2022-12-22T09:27:24.771Z,21.17
2022-12-22T09:28:30.229Z,21.15
2022-12-22T09:29:34.758Z,21.15
2022-12-22T09:30:38.969Z,21.12
2022-12-22T09:31:43.309Z,21.11
2022-12-22T09:32:47.862Z,21.1
2022-12-22T09:33:52.111Z,21.11
2022-12-22T09:34:56.425Z,21.14
2022-12-22T09:36:00.692Z,21.13
2022-12-22T09:37:04.965Z,21.13
2022-12-22T09:38:09.213Z,21.1
2022-12-22T09:39:13.425Z,21.08
2022-12-22T09:40:17.789Z,21.07
2022-12-22T09:41:22.294Z,21.04
2022-12-22T09:42:26.619Z,21.04
2022-12-22T09:43:30.842Z,21.03
2022-12-22T09:44:35.071Z,21.03
2022-12-22T09:45:40.373Z,21.04
2022-12-22T09:46:44.781Z,21.02
2022-12-22T09:47:49.013Z,21.03
2022-12-22T09:48:53.279Z,20.99
2022-12-22T09:50:06.753Z,20.97
2022-12-22T09:51:10.969Z,20.94
2022-12-22T09:52:15.254Z,20.94
2022-12-22T09:53:19.486Z,20.93
2022-12-22T09:54:23.777Z,20.91
2022-12-22T09:55:28.109Z,20.91
2022-12-22T09:56:32.310Z,20.92
2022-12-22T09:57:36.587Z,20.9
2022-12-22T09:58:40.818Z,20.88
2022-12-22T09:59:45.058Z,20.87
2022-12-22T10:00:49.300Z,20.86
2022-12-22T10:01:53.742Z,20.85
2022-12-22T10:02:58.382Z,20.85
2022-12-22T10:04:02.819Z,20.86
2022-12-22T10:05:07.063Z,20.84
2022-12-22T10:06:11.436Z,20.85
2022-12-22T10:07:15.666Z,20.85
2022-12-22T10:08:19.954Z,20.85
2022-12-22T10:10:58.427Z,20.87
2022-12-22T10:12:02.650Z,20.86
2022-12-22T10:13:06.882Z,20.86
2022-12-22T10:14:11.104Z,20.9
2022-12-22T10:15:20.112Z,20.89
2022-12-22T10:16:25.911Z,20.92
2022-12-22T10:17:30.442Z,20.91
2022-12-22T10:18:34.964Z,20.93
2022-12-22T10:19:39.181Z,20.94
2022-12-22T10:20:43.597Z,20.97
2022-12-22T10:21:47.855Z,20.98
2022-12-22T10:22:52.065Z,20.96
2022-12-22T10:23:56.297Z,20.98
2022-12-22T10:25:00.539Z,21
2022-12-22T10:27:43.091Z,21
2022-12-22T10:28:54.625Z,21.02
2022-12-22T10:29:58.877Z,21.01
2022-12-22T10:31:03.145Z,21
2022-12-22T10:32:07.500Z,21.03
2022-12-22T10:33:12.371Z,21.02
2022-12-22T10:34:16.633Z,21.02
2022-12-22T10:35:20.915Z,21.01
2022-12-22T10:36:25.143Z,20.98
2022-12-22T10:37:30.440Z,20.95
2022-12-22T10:38:35.176Z,20.98
2022-12-22T10:39:39.510Z,20.97
2022-12-22T10:40:44.383Z,20.94
2022-12-22T10:41:48.668Z,20.96
2022-12-22T10:42:52.944Z,20.96
2022-12-22T10:43:57.151Z,20.94
2022-12-22T10:45:01.416Z,20.95
2022-12-22T10:46:05.746Z,20.94
2022-12-22T10:47:15.542Z,20.91
2022-12-22T10:48:21.556Z,20.9
2022-12-22T10:49:25.781Z,20.89
2022-12-22T10:50:30.027Z,20.88
2022-12-22T10:51:34.283Z,20.89
2022-12-22T10:52:38.588Z,20.88
2022-12-22T10:53:42.829Z,20.88
2022-12-22T10:54:47.064Z,20.87
2022-12-22T10:55:51.280Z,20.87
2022-12-22T10:56:57.545Z,20.87
2022-12-22T10:58:05.416Z,20.86
2022-12-22T10:59:09.769Z,20.83
2022-12-22T11:00:14.056Z,20.83
2022-12-22T11:01:18.465Z,20.82
2022-12-22T11:02:23.259Z,20.86
2022-12-22T11:03:28.405Z,20.84
2022-12-22T11:04:33.119Z,20.84
2022-12-22T11:05:37.330Z,20.84
2022-12-22T11:06:41.548Z,20.86
2022-12-22T11:07:45.759Z,20.88
2022-12-22T11:08:51.720Z,20.88
2022-12-22T11:10:07.861Z,20.93
2022-12-22T11:11:12.122Z,20.92
2022-12-22T11:12:16.321Z,20.92
2022-12-22T11:13:20.600Z,20.95
2022-12-22T11:14:24.886Z,20.96
2022-12-22T11:15:29.163Z,20.99
2022-12-22T11:16:33.425Z,20.97
2022-12-22T11:17:37.930Z,21.02
2022-12-22T11:18:42.141Z,21.08
2022-12-22T11:19:46.424Z,21.09
2022-12-22T11:20:50.634Z,21.07
2022-12-22T11:21:54.899Z,21.04
2022-12-22T11:22:59.128Z,21.01
2022-12-22T11:24:03.389Z,21
2022-12-22T11:25:07.751Z,20.98
2022-12-22T11:26:11.983Z,20.98
2022-12-22T11:27:16.201Z,20.98
2022-12-22T11:28:20.411Z,20.98
2022-12-22T11:29:24.672Z,20.97
2022-12-22T11:30:28.905Z,20.97
2022-12-22T11:31:33.335Z,20.96
2022-12-22T11:32:37.929Z,20.97
2022-12-22T11:33:42.132Z,20.96
2022-12-22T11:34:46.378Z,20.98
2022-12-22T11:35:50.619Z,20.98
2022-12-22T11:36:54.866Z,21.01
2022-12-22T11:37:59.128Z,21.05
2022-12-22T11:39:03.361Z,21.05
2022-12-22T11:40:07.926Z,21.03
2022-12-22T11:41:12.262Z,21.01
2022-12-22T11:42:16.506Z,21.01
2022-12-22T11:43:20.729Z,21.01
2022-12-22T11:44:24.983Z,20.99
2022-12-22T11:45:29.226Z,20.98
2022-12-22T11:46:33.538Z,20.98
2022-12-22T11:47:38.043Z,21
2022-12-22T11:48:42.301Z,21.03
2022-12-22T11:49:46.522Z,21.02
2022-12-22T11:51:00.455Z,21.03
2022-12-22T11:52:16.429Z,21.01
2022-12-22T11:53:20.667Z,21.04
2022-12-22T11:54:24.913Z,21.05
2022-12-22T11:55:29.357Z,21.07
2022-12-22T11:56:33.627Z,21.07
2022-12-22T11:57:37.900Z,21.03
2022-12-22T11:58:42.153Z,20.99
2022-12-22T11:59:46.403Z,20.99
2022-12-22T12:02:29.768Z,20.95
2022-12-22T12:03:34.569Z,20.94
2022-12-22T12:04:39.292Z,20.96
2022-12-22T12:05:43.524Z,20.99
2022-12-22T12:06:47.805Z,20.98
2022-12-22T12:07:52.100Z,20.95
2022-12-22T12:08:56.327Z,20.98
2022-12-22T12:10:01.212Z,20.96
2022-12-22T12:11:05.427Z,20.97
2022-12-22T12:12:09.644Z,20.99
2022-12-22T12:13:16.832Z,21
2022-12-22T12:14:39.085Z,20.98
2022-12-22T12:15:43.344Z,21.02
2022-12-22T12:16:47.775Z,21.03
2022-12-22T12:17:51.975Z,21.03
2022-12-22T12:18:56.215Z,21.01
2022-12-22T12:20:00.463Z,21.01
2022-12-22T12:21:04.722Z,21.03
2022-12-22T12:22:08.979Z,21.05
2022-12-22T12:23:13.343Z,21.06
2022-12-22T12:24:17.594Z,21.07
2022-12-22T12:25:25.702Z,21.07
2022-12-22T12:26:30.329Z,21.06
2022-12-22T12:27:34.594Z,21.08
2022-12-22T12:28:38.818Z,21.09
2022-12-22T12:29:43.445Z,21.09
2022-12-22T12:30:51.057Z,21.06
2022-12-22T12:31:55.556Z,21.06
2022-12-22T12:33:00.036Z,21.04
2022-12-22T12:34:04.289Z,21.03
2022-12-22T12:35:08.516Z,21.03
2022-12-22T12:36:12.808Z,21.03
2022-12-22T12:37:18.187Z,21.03
2022-12-22T12:39:06.118Z,21.03
2022-12-22T12:40:12.645Z,21
2022-12-22T12:41:16.907Z,21.06
2022-12-22T12:42:21.117Z,21.08
2022-12-22T12:43:26.452Z,21.1
2022-12-22T12:44:30.731Z,21.11
2022-12-22T12:45:35.030Z,21.13
2022-12-22T12:46:39.302Z,21.13
2022-12-22T12:47:43.783Z,21.13
2022-12-22T12:48:48.920Z,21.13
2022-12-22T12:49:53.168Z,21.13
2022-12-22T12:50:57.427Z,21.12
2022-12-22T12:52:01.696Z,21.1
2022-12-22T12:53:05.934Z,21.06
2022-12-22T12:54:10.181Z,21.04
2022-12-22T12:55:20.339Z,21.02
2022-12-22T12:56:34.913Z,21.01
2022-12-22T12:57:40.185Z,21
2022-12-22T12:58:44.397Z,21.02
2022-12-22T12:59:48.699Z,21.01
2022-12-22T13:00:58.563Z,21.02
2022-12-22T13:02:03.308Z,21.04
2022-12-22T13:03:08.407Z,21.03
2022-12-22T13:05:03.379Z,21.02
2022-12-22T13:06:07.771Z,21.02
2022-12-22T13:07:11.990Z,21.01
2022-12-22T13:08:16.241Z,21
2022-12-22T13:10:57.493Z,20.97
2022-12-22T13:12:12.021Z,21
2022-12-22T13:13:26.869Z,21.02
2022-12-22T13:14:31.172Z,21.03
2022-12-22T13:15:35.637Z,21.04
2022-12-22T13:16:40.216Z,21.05
2022-12-22T13:17:44.903Z,21.05
2022-12-22T13:18:51.386Z,21.05
2022-12-22T13:19:56.446Z,21.07
2022-12-22T13:21:19.115Z,21.07
2022-12-22T13:23:08.485Z,21.05
2022-12-22T13:24:28.581Z,21.06
2022-12-22T13:25:34.396Z,21.05
2022-12-22T13:26:38.656Z,21.04
2022-12-22T13:27:43.538Z,21.06
2022-12-22T13:28:47.865Z,21.07
2022-12-22T13:29:52.124Z,21.07
2022-12-22T13:30:56.331Z,21.08
2022-12-22T13:32:00.701Z,21.07
2022-12-22T13:33:05.321Z,21.07
2022-12-22T13:34:09.565Z,21.07
2022-12-22T13:35:30.709Z,21.09
2022-12-22T13:36:46.906Z,21.11
2022-12-22T13:37:51.137Z,21.13
2022-12-22T13:38:55.364Z,21.12
2022-12-22T13:39:59.615Z,21.11
2022-12-22T13:41:03.837Z,21.09
2022-12-22T13:42:08.164Z,21.06
2022-12-22T13:43:12.640Z,21.08
2022-12-22T13:44:16.900Z,21.05
2022-12-22T13:45:21.205Z,21.07
2022-12-22T13:46:25.533Z,21.06
2022-12-22T13:47:29.976Z,21.12
2022-12-22T13:48:39.971Z,21.13
2022-12-22T13:50:08.147Z,21.15
2022-12-22T13:51:13.541Z,21.2
2022-12-22T13:52:17.771Z,21.23
2022-12-22T13:53:49.809Z,21.25
2022-12-22T13:55:14.892Z,21.29
2022-12-22T13:56:19.153Z,21.34
2022-12-22T13:57:23.361Z,21.38
2022-12-22T13:58:27.610Z,21.4
2022-12-22T13:59:31.875Z,21.41
2022-12-22T14:00:36.241Z,21.43
2022-12-22T14:01:40.919Z,21.45
2022-12-22T14:02:46.115Z,21.48
2022-12-22T14:03:59.889Z,21.48
2022-12-22T14:05:07.180Z,21.5
2022-12-22T14:06:11.432Z,21.52
2022-12-22T14:07:15.711Z,21.52
2022-12-22T14:08:19.929Z,21.52